Monday, June 18, 2018, 8:54 PM EDT
Back to Local

KIJD, Willimantic Windham Airport

Location: North Windham, CT, United States Lat: 41.75
Local Time: 8:54 PM EDT ( 0:54 GMT) Lon: -72.183
Time Zone: US/Eastern Elev: 246 ft

Show me the last for .
Show Decoded

2018-06-18 19:52 METAR KIJD 182352Z AUTO 17010KT 10SM FEW110 26/18 A2978 RMK AO2 LTG DSNT N AND
                 NE SLP081 T02610183 10317 20261 56013 =
2018-06-18 18:52 METAR KIJD 182252Z AUTO 19007G16KT 10SM CLR 27/19 A2980 RMK AO2 LTG DSNT N
                 SLP087 T02670189 =
2018-06-18 17:52 METAR KIJD 182152Z AUTO 21013G21KT 10SM CLR 28/19 A2979 RMK AO2 SLP086 T02830194
                 =
2018-06-18 16:52 METAR KIJD 182052Z AUTO 22010G25KT 10SM CLR 29/21 A2981 RMK AO2 SLP094 T02940206
                 58020 =
2018-06-18 15:52 METAR KIJD 181952Z AUTO 20013G19KT 10SM CLR 31/21 A2983 RMK AO2 SLP101 T03060211
                 =
2018-06-18 14:52 METAR KIJD 181852Z AUTO 21014G18KT 10SM FEW038 31/21 A2986 RMK AO2 SLP110
                 T03110211 =
2018-06-18 13:52 METAR KIJD 181752Z AUTO 20016G22KT 10SM CLR 31/21 A2987 RMK AO2 SLP114 T03110211
                 10317 20217 58027 =
2018-06-18 12:52 METAR KIJD 181652Z AUTO 20008KT 180V250 10SM CLR 31/21 A2991 RMK AO2 SLP127
                 T03060211 =
2018-06-18 11:52 METAR KIJD 181552Z AUTO 21010KT 10SM CLR 30/21 A2993 RMK AO2 SLP133 T03000206 =
2018-06-18 10:52 METAR KIJD 181452Z AUTO 21008KT 10SM CLR 28/20 A2995 RMK AO2 SLP141 T02780200
                 58017 =
2018-06-18 09:52 METAR KIJD 181352Z AUTO 22009KT 10SM CLR 27/19 A2997 RMK AO2 SLP147 T02670189 =
2018-06-18 08:52 METAR KIJD 181252Z AUTO 22008KT 10SM CLR 24/18 A2999 RMK AO2 SLP154 T02390183 =
2018-06-18 07:52 METAR KIJD 181152Z AUTO 22003KT 10SM CLR 22/17 A3000 RMK AO2 SLP158 T02170172
                 10217 20150 58012 =
2018-06-18 06:52 METAR KIJD 181052Z AUTO 00000KT 10SM CLR 18/16 A3002 RMK AO2 SLP163 T01780156 =
2018-06-18 05:52 METAR KIJD 180952Z AUTO 00000KT 10SM CLR 16/14 A3004 RMK AO2 SLP169 T01560144 =
2018-06-18 04:52 METAR KIJD 180852Z AUTO 00000KT 10SM CLR 16/14 A3004 RMK AO2 SLP170 T01560139
                 55008 =
2018-06-18 03:52 METAR KIJD 180752Z AUTO 00000KT 10SM CLR 16/14 A3004 RMK AO2 SLP169 T01560139 =
2018-06-18 02:52 METAR KIJD 180652Z AUTO 00000KT 10SM CLR 17/15 A3005 RMK AO2 SLP174 T01670150 =
2018-06-18 01:52 METAR KIJD 180552Z AUTO 00000KT 10SM CLR 17/14 A3006 RMK AO2 SLP178 T01670144
                 10261 20167 50000 =
2018-06-18 00:52 METAR KIJD 180452Z AUTO 00000KT 10SM CLR 18/15 A3007 RMK AO2 SLP181 T01780150
                 403170122 =
2018-06-17 23:52 METAR KIJD 180352Z AUTO 00000KT 10SM CLR 19/14 A3007 RMK AO2 SLP179 T01890144 =
2018-06-17 22:52 METAR KIJD 180252Z AUTO 14003KT 10SM CLR 22/13 A3006 RMK AO2 SLP178 T02170133
                 50000 =
2018-06-17 21:52 METAR KIJD 180152Z AUTO 15004KT 10SM CLR 23/14 A3007 RMK AO2 SLP180 T02280139 =

Support USWX by starting your Amazon purchase here.